Time;durP1;ratioP1;P1;durP2;ratioP2;P2;SDS_P1;SDS_P2;PMS_P1;PMS_P2;Temp;Humidity;BMP_temperature;BMP_pressure;BME280_temperature;BME280_humidity;BME280_pressure;Samples;Min_cycle;Max_cycle;Signal;HPM_P1;HPM_P2
2023/05/01 00:00:18;;;;;;;2.10;1.48;;;18.50;68.40;;;;;;5065637;28;20052;-31
2023/05/01 00:02:44;;;;;;;3.53;1.50;;;19.90;68.70;;;;;;5063247;28;20032;-33
2023/05/01 00:05:11;;;;;;;2.00;1.60;;;18.50;57.90;;;;;;5071368;28;20147;-33
2023/05/01 00:07:39;;;;;;;2.97;1.60;;;;;;;;;;5072051;28;20420;-36
2023/05/01 00:10:07;;;;;;;2.30;1.48;;;19.40;68.40;;;;;;5071425;28;20417;-32
2023/05/01 00:12:34;;;;;;;2.30;1.50;;;19.20;68.80;;;;;;5071672;28;20419;-32
2023/05/01 00:15:00;;;;;;;4.15;1.70;;;18.70;68.50;;;;;;5071689;28;20051;-32
2023/05/01 00:17:29;;;;;;;1.98;1.63;;;19.10;50.10;;;;;;5068256;28;20144;-36
2023/05/01 00:19:56;;;;;;;2.53;1.63;;;19.60;69.20;;;;;;5051312;28;20512;-32
2023/05/01 00:22:23;;;;;;;2.65;1.73;;;18.80;66.40;;;;;;5051343;28;20052;-32
2023/05/01 00:24:50;;;;;;;3.22;1.70;;;;;;;;;;5051564;28;20049;-35
2023/05/01 00:27:17;;;;;;;2.00;1.55;;;19.40;68.40;;;;;;5051582;28;20103;-32
2023/05/01 00:29:44;;;;;;;2.35;1.67;;;;;;;;;;5051433;28;20506;-36
2023/05/01 00:32:11;;;;;;;2.53;1.60;;;19.30;67.20;;;;;;5053800;28;20052;-32
2023/05/01 00:34:39;;;;;;;3.13;1.55;;;19.10;50.10;;;;;;5071033;28;20078;-36
2023/05/01 00:37:06;;;;;;;2.65;1.77;;;;;;;;;;5069067;28;20068;-35
2023/05/01 00:39:33;;;;;;;2.50;1.60;;;19.30;68.70;;;;;;5051307;28;20489;-31
2023/05/01 00:42:01;;;;;;;2.25;1.60;;;;;;;;;;5051335;28;20045;-31
2023/05/01 00:44:27;;;;;;;1.83;1.60;;;20.00;69.20;;;;;;5051296;28;20052;-31
2023/05/01 00:46:55;;;;;;;2.55;1.58;;;;;;;;;;5067293;28;20531;-35
2023/05/01 00:49:22;;;;;;;2.40;1.65;;;18.90;68.10;;;;;;5071490;28;20085;-31
2023/05/01 00:51:51;;;;;;;1.80;1.60;;;20.10;50.70;;;;;;5071322;28;20051;-34
2023/05/01 00:54:18;;;;;;;2.35;1.90;;;;;;;;;;5071081;28;20045;-35
2023/05/01 00:56:45;;;;;;;2.15;1.60;;;17.80;67.50;;;;;;5071024;28;20098;-31
2023/05/01 00:59:12;;;;;;;2.30;1.70;;;;;;;;;;5071340;28;20056;-31
2023/05/01 01:01:40;;;;;;;2.47;1.95;;;18.90;68.10;;;;;;5070833;28;20052;-31
2023/05/01 01:04:07;;;;;;;2.05;1.60;;;;;;;;;;5070944;28;20056;-31
2023/05/01 01:06:39;;;;;;;1.83;1.50;;;19.00;50.00;;;;;;5070956;28;20497;-31
2023/05/01 01:09:13;;;;;;;3.05;1.63;;;18.90;68.10;;;;;;5074767;28;20055;-31
2023/05/01 01:11:42;;;;;;;2.17;1.52;;;19.00;68.10;;;;;;5074781;28;20051;-31
2023/05/01 01:14:11;;;;;;;2.67;1.50;;;18.60;61.30;;;;;;5073518;28;20055;-31
2023/05/01 01:16:41;;;;;;;2.97;1.70;;;18.10;67.80;;;;;;5054889;28;20056;-31
2023/05/01 01:19:18;;;;;;;2.13;1.70;;;19.20;68.20;;;;;;5054989;28;20056;-31
2023/05/01 01:21:46;;;;;;;2.03;1.60;;;;;;;;;;5054634;28;20051;-34
2023/05/01 01:24:33;;;;;;;2.55;1.70;;;18.90;50.00;;;;;;5054331;28;20060;-31
2023/05/01 01:27:37;;;;;;;1.88;1.58;;;18.90;64.20;;;;;;5054287;28;20520;-31
2023/05/01 01:30:15;;;;;;;1.83;1.55;;;19.20;50.60;;;;;;5064776;28;20416;-33
2023/05/01 01:33:08;;;;;;;1.98;1.75;;;18.60;68.50;;;;;;5074133;28;20044;-31
2023/05/01 01:35:37;;;;;;;1.90;1.70;;;18.70;51.00;;;;;;5074639;28;20055;-31
2023/05/01 01:38:06;;;;;;;2.00;1.60;;;18.70;54.60;;;;;;5073453;28;20421;-32
2023/05/01 01:40:34;;;;;;;2.50;1.70;;;19.10;68.40;;;;;;5074356;28;20456;-31
2023/05/01 01:43:03;;;;;;;2.30;1.60;;;19.30;68.60;;;;;;5073138;28;20058;-31
2023/05/01 01:45:32;;;;;;;2.20;1.55;;;18.80;49.90;;;;;;5074426;28;20083;-34
2023/05/01 01:47:59;;;;;;;1.90;1.55;;;18.90;68.70;;;;;;5074172;28;20051;-31
2023/05/01 01:50:26;;;;;;;2.17;1.65;;;18.40;68.90;;;;;;5073946;28;20052;-31
2023/05/01 01:52:55;;;;;;;2.03;1.70;;;18.60;68.20;;;;;;5072394;28;20106;-31
2023/05/01 01:55:22;;;;;;;2.38;1.80;;;18.40;68.10;;;;;;5074027;28;20122;-32
2023/05/01 01:57:49;;;;;;;2.20;1.70;;;19.70;68.60;;;;;;5074180;28;20053;-31
2023/05/01 02:00:16;;;;;;;2.38;1.50;;;17.90;62.40;;;;;;5073926;28;20054;-31
2023/05/01 02:02:43;;;;;;;2.38;1.88;;;19.10;57.30;;;;;;5073742;28;20040;-32
2023/05/01 02:05:13;;;;;;;2.13;1.60;;;19.10;69.30;;;;;;5072381;28;20390;-31
2023/05/01 02:07:40;;;;;;;2.13;1.63;;;19.00;68.30;;;;;;5073191;28;20048;-31
2023/05/01 02:10:09;;;;;;;2.45;1.63;;;18.20;49.60;;;;;;5073234;28;20497;-33
2023/05/01 02:12:36;;;;;;;2.55;1.70;;;17.70;60.70;;;;;;5073460;28;20041;-31
2023/05/01 02:15:03;;;;;;;1.95;1.50;;;;;;;;;;5073625;28;20142;-35
2023/05/01 02:17:30;;;;;;;2.25;1.70;;;18.80;68.60;;;;;;5073776;28;20092;-31
2023/05/01 02:19:56;;;;;;;2.00;1.67;;;18.70;68.60;;;;;;5073322;28;20052;-31
2023/05/01 02:22:24;;;;;;;2.10;1.63;;;18.70;59.40;;;;;;5073137;28;20516;-31
2023/05/01 02:24:51;;;;;;;2.08;1.63;;;;;;;;;;5055110;28;20053;-36
2023/05/01 02:27:23;;;;;;;1.90;1.60;;;18.70;49.90;;;;;;5053525;28;20057;-31
2023/05/01 02:29:50;;;;;;;2.25;1.70;;;18.70;52.70;;;;;;5053262;28;20052;-33
2023/05/01 02:32:18;;;;;;;2.50;1.60;;;;;;;;;;5053082;28;20045;-35
2023/05/01 02:34:45;;;;;;;3.42;1.98;;;19.00;54.30;;;;;;5053249;28;20102;-33
2023/05/01 02:37:12;;;;;;;1.90;1.60;;;19.00;60.90;;;;;;5064462;28;20135;-31
2023/05/01 02:39:39;;;;;;;2.10;1.80;;;;;;;;;;5072361;28;20059;-31
2023/05/01 02:42:06;;;;;;;2.17;1.50;;;;;;;;;;5073082;28;20056;-33
2023/05/01 02:44:39;;;;;;;1.98;1.70;;;18.90;68.40;;;;;;5072984;28;20057;-32
2023/05/01 02:47:07;;;;;;;2.42;1.70;;;18.90;59.10;;;;;;5073113;28;20045;-32
2023/05/01 02:49:34;;;;;;;2.30;1.65;;;;;;;;;;5072748;28;20554;-34
2023/05/01 02:52:01;;;;;;;2.55;1.90;;;19.00;68.90;;;;;;5072412;28;20046;-31
2023/05/01 02:54:28;;;;;;;1.83;1.45;;;19.50;68.80;;;;;;5072615;28;20416;-31
2023/05/01 02:56:57;;;;;;;1.80;1.50;;;18.70;68.70;;;;;;5072959;28;20090;-31
2023/05/01 02:59:23;;;;;;;2.80;1.73;;;18.70;69.40;;;;;;5072743;28;20091;-31
2023/05/01 03:01:51;;;;;;;2.40;1.60;;;18.50;49.80;;;;;;5072613;28;20044;-35
2023/05/01 03:04:18;;;;;;;1.92;1.58;;;;;;;;;;5072126;28;20052;-35
2023/05/01 03:06:45;;;;;;;2.20;1.60;;;;;;;;;;5072105;28;20044;-31
2023/05/01 03:09:12;;;;;;;1.90;1.70;;;18.70;69.20;;;;;;5071525;28;20060;-31
2023/05/01 03:11:39;;;;;;;2.83;1.67;;;18.60;66.60;;;;;;5072587;28;20094;-32
2023/05/01 03:14:06;;;;;;;2.00;1.58;;;18.20;68.20;;;;;;5072155;28;20049;-31
2023/05/01 03:16:33;;;;;;;1.95;1.60;;;;;;;;;;5072294;28;20049;-32
2023/05/01 03:19:01;;;;;;;2.67;1.70;;;18.50;49.80;;;;;;5072557;28;20070;-32
2023/05/01 03:21:27;;;;;;;1.92;1.60;;;18.60;65.40;;;;;;5056155;28;20055;-31
2023/05/01 03:23:54;;;;;;;2.20;1.65;;;19.00;69.20;;;;;;5052383;28;20055;-31
2023/05/01 03:26:21;;;;;;;2.10;1.70;;;;;;;;;;5052090;28;20410;-35
2023/05/01 03:28:48;;;;;;;2.03;1.60;;;17.90;68.90;;;;;;5052206;28;20394;-31
2023/05/01 03:31:14;;;;;;;2.25;1.70;;;18.70;69.30;;;;;;5051857;28;20055;-31
2023/05/01 03:33:41;;;;;;;2.17;1.65;;;;;;;;;;5052546;28;20512;-34
2023/05/01 03:36:09;;;;;;;3.30;1.95;;;18.80;68.60;;;;;;5071203;28;20059;-31
2023/05/01 03:38:36;;;;;;;2.35;1.60;;;18.70;68.90;;;;;;5072042;28;20066;-31
2023/05/01 03:41:04;;;;;;;2.47;1.80;;;18.90;69.10;;;;;;5071959;28;20054;-31
2023/05/01 03:43:31;;;;;;;2.75;1.80;;;17.90;65.40;;;;;;5071670;28;20045;-31
2023/05/01 03:45:58;;;;;;;2.35;1.83;;;;;;;;;;5071942;28;20051;-35
2023/05/01 03:48:25;;;;;;;2.00;1.75;;;19.50;68.90;;;;;;5071727;28;20516;-31
2023/05/01 03:50:51;;;;;;;3.00;1.63;;;18.50;68.80;;;;;;5071239;28;20040;-31
2023/05/01 03:53:19;;;;;;;2.13;1.70;;;18.50;66.70;;;;;;5071551;28;20049;-31
2023/05/01 03:55:46;;;;;;;2.78;2.00;;;18.70;67.10;;;;;;5071853;28;20057;-34
2023/05/01 03:58:13;;;;;;;2.40;1.83;;;18.60;68.40;;;;;;5071654;28;20078;-31
2023/05/01 04:00:40;;;;;;;2.67;2.10;;;18.60;68.50;;;;;;5071799;28;20561;-31
2023/05/01 04:03:07;;;;;;;2.55;2.03;;;19.30;69.20;;;;;;5071681;28;20131;-30
2023/05/01 04:05:34;;;;;;;2.63;1.80;;;19.20;69.80;;;;;;5071150;28;20508;-31
2023/05/01 04:08:01;;;;;;;2.80;1.83;;;;;;;;;;5071841;28;20052;-33
2023/05/01 04:10:29;;;;;;;2.45;1.73;;;19.40;69.00;;;;;;5071662;28;20056;-31
2023/05/01 04:12:56;;;;;;;2.30;1.80;;;18.50;68.60;;;;;;5071377;28;20052;-31
2023/05/01 04:15:23;;;;;;;2.80;1.80;;;18.60;60.10;;;;;;5071881;28;20416;-31
2023/05/01 04:17:49;;;;;;;2.40;1.77;;;18.40;54.50;;;;;;5071690;28;20053;-31
2023/05/01 04:20:18;;;;;;;2.50;1.77;;;17.10;67.90;;;;;;5058869;28;20076;-30
2023/05/01 04:22:44;;;;;;;2.38;1.80;;;18.40;68.60;;;;;;5051197;28;20107;-30
2023/05/01 04:25:11;;;;;;;1.92;1.50;;;;;;;;;;5051597;28;20095;-33
2023/05/01 04:27:39;;;;;;;2.95;1.90;;;18.30;55.50;;;;;;5051455;28;20057;-31
2023/05/01 04:30:07;;;;;;;1.90;1.60;;;18.30;49.80;;;;;;5053854;28;20078;-31
2023/05/01 04:32:34;;;;;;;2.72;1.90;;;18.10;61.50;;;;;;5070415;28;20129;-31
2023/05/01 04:35:01;;;;;;;2.80;1.90;;;18.00;68.50;;;;;;5071594;28;20106;-31
2023/05/01 04:37:27;;;;;;;4.55;2.17;;;18.40;58.70;;;;;;5071010;28;20048;-34
2023/05/01 04:39:54;;;;;;;2.20;1.73;;;;;;;;;;5071244;28;20408;-31
2023/05/01 04:42:21;;;;;;;2.42;2.08;;;;;;;;;;5074097;28;20448;-36
2023/05/01 04:44:49;;;;;;;2.35;1.75;;;17.60;69.00;;;;;;5075239;28;20485;-32
2023/05/01 04:47:16;;;;;;;1.95;1.60;;;18.50;68.60;;;;;;5074506;28;20058;-31
2023/05/01 04:49:43;;;;;;;2.72;2.08;;;18.40;68.70;;;;;;5075193;28;20055;-31
2023/05/01 04:52:11;;;;;;;2.17;1.90;;;;;;;;;;5075175;28;20055;-35
2023/05/01 04:54:38;;;;;;;2.35;1.80;;;;;;;;;;5075035;28;20058;-33
2023/05/01 04:57:05;;;;;;;2.75;1.90;;;;;;;;;;5075127;28;20052;-32
2023/05/01 04:59:32;;;;;;;2.47;1.85;;;;;;;;;;5075147;28;20071;-34
2023/05/01 05:02:00;;;;;;;2.80;1.90;;;18.20;49.80;;;;;;5074332;28;20084;-32
2023/05/01 05:04:27;;;;;;;2.28;2.03;;;17.60;68.70;;;;;;5074759;28;20057;-31
2023/05/01 05:06:54;;;;;;;2.72;1.80;;;;;;;;;;5074645;28;20668;-31
2023/05/01 05:09:21;;;;;;;2.42;1.90;;;18.30;57.20;;;;;;5074843;28;20055;-32
2023/05/01 05:11:47;;;;;;;2.28;1.95;;;18.30;54.70;;;;;;5075013;28;20100;-31
2023/05/01 05:14:14;;;;;;;2.10;1.90;;;;;;;;;;5074902;28;20055;-35
2023/05/01 05:16:41;;;;;;;2.03;1.80;;;18.40;68.80;;;;;;5066320;28;20064;-31
2023/05/01 05:19:09;;;;;;;2.47;1.73;;;18.40;69.20;;;;;;5054444;28;20398;-30
2023/05/01 05:21:36;;;;;;;2.13;1.70;;;;;;;;;;5054869;28;20044;-32
2023/05/01 05:24:03;;;;;;;2.75;1.90;;;17.50;65.10;;;;;;5054719;28;20047;-31
2023/05/01 05:26:30;;;;;;;2.50;2.05;;;;;;;;;;5058185;28;20049;-31
2023/05/01 05:28:57;;;;;;;2.53;1.90;;;18.40;57.20;;;;;;5074534;28;20139;-32
2023/05/01 05:31:24;;;;;;;2.03;1.63;;;18.10;69.10;;;;;;5073614;28;20049;-31
2023/05/01 05:33:50;;;;;;;2.67;2.17;;;17.60;55.70;;;;;;5065295;28;20055;-31
2023/05/01 05:36:18;;;;;;;2.35;1.85;;;17.40;49.80;;;;;;5074086;28;20733;-33
2023/05/01 05:38:45;;;;;;;2.38;1.98;;;;;;;;;;5074445;28;20127;-34
2023/05/01 05:41:12;;;;;;;2.70;1.70;;;18.50;69.30;;;;;;5074535;28;20053;-32
2023/05/01 05:43:39;;;;;;;2.20;1.80;;;16.80;68.10;;;;;;5074136;28;20044;-31
2023/05/01 05:46:06;;;;;;;3.28;1.90;;;;;;;;;;5066023;28;20061;-36
2023/05/01 05:48:32;;;;;;;3.65;1.80;;;18.20;68.90;;;;;;5054263;28;20083;-32
2023/05/01 05:51:00;;;;;;;3.17;1.90;;;;;;;;;;5054678;28;20060;-36
2023/05/01 05:53:28;;;;;;;2.00;1.80;;;18.00;68.70;;;;;;5052702;28;20494;-31
2023/05/01 05:55:55;;;;;;;3.75;1.90;;;;;;;;;;5055653;28;20045;-31
2023/05/01 05:58:23;;;;;;;2.45;1.85;;;18.20;50.20;;;;;;5061342;28;20391;-33
2023/05/01 06:00:51;;;;;;;2.55;1.90;;;18.00;50.00;;;;;;5053596;28;20620;-32
2023/05/01 06:03:52;;;;;;;3.20;1.80;;;17.90;65.70;;;;;;5053071;28;20047;-32
2023/05/01 06:06:19;;;;;;;3.13;1.85;;;18.00;69.30;;;;;;5053609;28;20045;-30
2023/05/01 06:08:47;;;;;;;2.47;1.80;;;19.00;55.60;;;;;;5053439;28;20133;-31
2023/05/01 06:11:13;;;;;;;3.47;1.90;;;18.30;68.30;;;;;;5053635;28;20074;-30
2023/05/01 06:13:40;;;;;;;3.03;1.95;;;17.90;57.00;;;;;;5055326;28;20128;-32
2023/05/01 06:16:07;;;;;;;2.03;1.70;;;18.10;68.70;;;;;;5062524;28;20055;-34
2023/05/01 06:18:34;;;;;;;1.90;1.70;;;;;;;;;;5063472;28;20511;-35
2023/05/01 06:21:01;;;;;;;2.15;1.73;;;19.00;67.90;;;;;;5064118;28;20419;-31
2023/05/01 06:23:28;;;;;;;2.58;1.75;;;19.00;68.20;;;;;;5064134;28;20135;-31
2023/05/01 06:25:56;;;;;;;2.83;1.80;;;20.20;51.00;;;;;;5071754;28;20056;-33
2023/05/01 06:28:23;;;;;;;2.15;1.48;;;19.30;49.20;;;;;;5057171;28;20067;-34
2023/05/01 06:30:49;;;;;;;1.60;1.50;;;19.40;68.30;;;;;;5053836;28;20055;-31
2023/05/01 06:33:16;;;;;;;1.60;1.38;;;19.20;67.60;;;;;;5053395;28;20041;-31
2023/05/01 06:35:43;;;;;;;2.03;1.60;;;;;;;;;;5053142;28;20485;-33
2023/05/01 06:38:10;;;;;;;2.03;1.70;;;19.20;67.30;;;;;;5066137;28;20045;-30
2023/05/01 06:40:37;;;;;;;2.13;1.70;;;;;;;;;;5059646;28;20052;-35
2023/05/01 06:43:05;;;;;;;3.20;1.73;;;20.60;68.20;;;;;;5059851;28;20412;-31
2023/05/01 06:45:32;;;;;;;2.38;1.70;;;19.90;67.20;;;;;;5053443;28;20135;-31
2023/05/01 06:47:58;;;;;;;1.90;1.70;;;19.10;53.30;;;;;;5053158;28;20060;-31
2023/05/01 06:50:27;;;;;;;2.47;1.60;;;;;;;;;;5052954;28;20432;-35
2023/05/01 06:52:54;;;;;;;4.55;1.92;;;19.60;67.20;;;;;;5052865;28;20055;-31
2023/05/01 06:55:21;;;;;;;2.60;1.75;;;19.60;55.60;;;;;;5052925;28;20055;-31
2023/05/01 06:57:48;;;;;;;2.55;1.70;;;;;;;;;;5070568;28;20558;-33
2023/05/01 07:00:17;;;;;;;2.75;1.90;;;20.10;67.40;;;;;;5073029;28;20044;-32
2023/05/01 07:02:44;;;;;;;2.22;1.50;;;20.50;66.60;;;;;;5058952;28;20055;-31
2023/05/01 07:05:11;;;;;;;2.53;1.67;;;20.30;66.60;;;;;;5051986;28;20106;-31
2023/05/01 07:07:38;;;;;;;2.17;1.60;;;;;;;;;;5061602;28;20079;-36
2023/05/01 07:10:06;;;;;;;2.63;1.50;;;20.30;66.40;;;;;;5072541;28;20539;-31
2023/05/01 07:12:32;;;;;;;1.95;1.60;;;20.60;66.10;;;;;;5072022;28;20485;-31
2023/05/01 07:14:59;;;;;;;2.20;1.70;;;20.00;66.60;;;;;;5072500;28;20048;-31
2023/05/01 07:17:28;;;;;;;2.33;1.92;;;20.10;48.10;;;;;;5072633;28;20135;-35
2023/05/01 07:19:55;;;;;;;2.55;1.75;;;20.70;66.30;;;;;;5071039;28;20055;-31
2023/05/01 07:22:22;;;;;;;1.90;1.67;;;20.30;66.20;;;;;;5052282;28;20051;-31
2023/05/01 07:24:48;;;;;;;2.13;1.70;;;19.00;52.20;;;;;;5052460;28;20405;-32
2023/05/01 07:27:15;;;;;;;2.20;1.55;;;20.30;66.60;;;;;;5055053;28;20049;-31
2023/05/01 07:29:42;;;;;;;2.15;1.70;;;19.90;66.40;;;;;;5059438;28;20041;-31
2023/05/01 07:32:09;;;;;;;2.65;1.58;;;;;;;;;;5056832;28;20049;-35
2023/05/01 07:34:37;;;;;;;1.85;1.48;;;20.40;66.20;;;;;;5072177;28;20052;-31
2023/05/01 07:37:03;;;;;;;2.58;1.50;;;19.20;65.50;;;;;;5063893;28;20417;-31
2023/05/01 07:39:30;;;;;;;2.67;1.63;;;21.10;66.40;;;;;;5052429;28;20048;-31
2023/05/01 07:41:57;;;;;;;2.92;1.75;;;20.10;58.40;;;;;;5062455;28;20178;-33
2023/05/01 07:44:24;;;;;;;2.92;1.98;;;20.60;66.50;;;;;;5072255;28;20045;-31
2023/05/01 07:46:50;;;;;;;2.72;1.70;;;19.20;66.30;;;;;;5070527;28;20076;-31
2023/05/01 07:49:17;;;;;;;2.47;1.85;;;20.00;50.50;;;;;;5061575;28;20056;-33
2023/05/01 07:51:45;;;;;;;2.00;1.60;;;19.80;66.70;;;;;;5062346;28;20052;-31
2023/05/01 07:54:13;;;;;;;2.20;1.63;;;19.60;65.80;;;;;;5051494;28;20041;-31
2023/05/01 07:56:40;;;;;;;2.85;1.70;;;20.20;66.30;;;;;;5060328;28;20465;-31
2023/05/01 07:59:07;;;;;;;3.13;1.80;;;;;;;;;;5051866;28;20058;-31
2023/05/01 08:01:34;;;;;;;2.53;1.63;;;19.50;56.90;;;;;;5060757;28;20049;-32
2023/05/01 08:04:01;;;;;;;1.85;1.52;;;20.30;66.70;;;;;;5062139;28;20054;-31
2023/05/01 08:06:28;;;;;;;1.60;1.33;;;;;;;;;;5063810;28;20606;-35
2023/05/01 08:08:56;;;;;;;3.92;1.70;;;19.80;66.20;;;;;;5061864;28;20382;-31
2023/05/01 08:11:23;;;;;;;2.55;1.70;;;20.60;67.00;;;;;;5060594;28;20123;-31
2023/05/01 08:13:50;;;;;;;1.98;1.60;;;20.10;65.70;;;;;;5051284;28;20099;-31
2023/05/01 08:16:18;;;;;;;3.03;1.70;;;19.50;66.50;;;;;;5055554;28;20076;-31
2023/05/01 08:18:46;;;;;;;2.65;1.77;;;19.50;66.20;;;;;;5057051;28;20055;-31
2023/05/01 08:21:12;;;;;;;2.10;1.67;;;19.90;66.30;;;;;;5062325;28;20040;-31
2023/05/01 08:23:39;;;;;;;2.50;1.67;;;20.10;66.80;;;;;;5060717;28;20055;-31
2023/05/01 08:26:07;;;;;;;2.60;1.60;;;19.80;48.40;;;;;;5054372;28;20045;-35
2023/05/01 08:28:34;;;;;;;1.90;1.60;;;19.80;48.50;;;;;;5065094;28;20402;-35
2023/05/01 08:31:02;;;;;;;2.65;1.63;;;20.10;51.10;;;;;;5069948;28;20059;-32
2023/05/01 08:33:29;;;;;;;2.58;1.50;;;20.20;65.60;;;;;;5058742;28;20140;-31
2023/05/01 08:35:55;;;;;;;3.50;1.70;;;19.90;66.50;;;;;;5052450;28;20129;-31
2023/05/01 08:38:22;;;;;;;1.80;1.60;;;20.20;66.40;;;;;;5071812;28;20052;-31
2023/05/01 08:40:52;;;;;;;2.40;1.70;;;20.00;67.30;;;;;;5071607;28;20505;-31
2023/05/01 08:43:20;;;;;;;5.47;1.65;;;19.80;66.70;;;;;;5071320;28;20056;-31
2023/05/01 08:45:47;;;;;;;2.60;1.63;;;19.80;67.20;;;;;;5061824;28;20557;-31
2023/05/01 08:48:14;;;;;;;2.17;1.60;;;20.70;66.60;;;;;;5060253;28;20063;-31
2023/05/01 08:50:40;;;;;;;2.67;1.60;;;20.10;67.10;;;;;;5051646;28;20059;-31
2023/05/01 08:53:07;;;;;;;2.10;1.55;;;20.30;59.50;;;;;;5056001;28;20090;-32
2023/05/01 08:55:34;;;;;;;2.20;1.70;;;20.00;66.30;;;;;;5071320;28;20076;-31
2023/05/01 08:58:01;;;;;;;4.35;2.17;;;19.80;66.20;;;;;;5070235;28;20048;-31
2023/05/01 09:00:30;;;;;;;2.90;1.70;;;19.60;66.00;;;;;;5070593;28;20053;-31
2023/05/01 09:02:56;;;;;;;4.68;2.00;;;19.10;66.20;;;;;;5071233;28;20114;-31
2023/05/01 09:05:23;;;;;;;3.70;1.88;;;19.70;66.10;;;;;;5071327;28;20047;-31
2023/05/01 09:07:50;;;;;;;2.50;1.80;;;19.40;55.70;;;;;;5067709;28;20051;-34
2023/05/01 09:10:17;;;;;;;3.55;1.63;;;20.20;67.20;;;;;;5063374;28;20044;-31
2023/05/01 09:12:45;;;;;;;4.28;1.90;;;19.90;56.30;;;;;;5070770;28;20048;-34
2023/05/01 09:15:12;;;;;;;2.92;1.92;;;;;;;;;;5067243;28;20048;-34
2023/05/01 09:17:40;;;;;;;3.60;1.90;;;19.70;66.30;;;;;;5052696;28;20574;-31
2023/05/01 09:20:08;;;;;;;3.40;1.92;;;20.30;67.00;;;;;;5050829;28;20061;-31
2023/05/01 09:22:35;;;;;;;3.45;2.15;;;19.70;65.90;;;;;;5051231;28;20051;-31
2023/05/01 09:25:02;;;;;;;4.25;2.40;;;;;;;;;;5051281;28;20084;-35
2023/05/01 09:27:33;;;;;;;6.85;2.40;;;20.30;67.10;;;;;;5051071;28;20053;-31
2023/05/01 09:30:00;;;;;;;4.90;2.40;;;20.30;51.30;;;;;;5055602;28;20103;-33
2023/05/01 09:32:27;;;;;;;6.93;2.40;;;19.20;65.50;;;;;;5054435;28;20056;-31
2023/05/01 09:34:56;;;;;;;3.80;2.10;;;20.00;47.80;;;;;;5054555;28;20045;-35
2023/05/01 09:37:27;;;;;;;3.83;2.30;;;19.60;56.70;;;;;;5060658;28;20502;-31
2023/05/01 09:40:04;;;;;;;3.70;2.17;;;20.70;61.40;;;;;;5063275;28;20041;-31
2023/05/01 09:42:31;;;;;;;5.07;2.25;;;20.80;62.30;;;;;;5064468;28;20421;-31
2023/05/01 09:44:58;;;;;;;3.60;2.20;;;20.20;65.80;;;;;;5061323;28;20056;-32
2023/05/01 09:47:26;;;;;;;5.65;2.20;;;;;;;;;;5064287;28;20052;-34
2023/05/01 09:49:55;;;;;;;4.05;2.10;;;19.70;66.30;;;;;;5061959;28;20486;-31
2023/05/01 09:52:22;;;;;;;3.92;2.13;;;20.70;64.80;;;;;;5053947;28;20498;-31
2023/05/01 09:54:49;;;;;;;4.60;2.08;;;;;;;;;;5053836;28;20051;-34
2023/05/01 09:57:16;;;;;;;4.38;2.10;;;20.60;66.40;;;;;;5066797;28;20128;-31
2023/05/01 09:59:42;;;;;;;4.85;2.15;;;20.30;65.80;;;;;;5073166;28;20736;-31
2023/05/01 10:02:19;;;;;;;3.97;2.10;;;20.20;47.30;;;;;;5074277;28;20044;-32
2023/05/01 10:04:46;;;;;;;4.40;2.15;;;20.10;65.10;;;;;;5072471;28;20067;-31
2023/05/01 10:07:14;;;;;;;3.75;2.05;;;19.20;64.90;;;;;;5073774;28;20481;-32
2023/05/01 10:09:41;;;;;;;3.20;1.98;;;20.80;65.90;;;;;;5073716;28;20497;-31
2023/05/01 10:12:07;;;;;;;5.10;2.20;;;20.50;50.00;;;;;;5073212;28;20132;-33
2023/05/01 10:14:37;;;;;;;5.47;2.10;;;20.10;65.40;;;;;;5073110;28;20045;-31
2023/05/01 10:17:16;;;;;;;3.80;1.80;;;19.40;52.90;;;;;;5073453;28;20420;-32
2023/05/01 10:19:43;;;;;;;4.75;2.15;;;20.70;63.60;;;;;;5073395;28;20055;-31
2023/05/01 10:22:10;;;;;;;2.75;1.60;;;21.40;53.10;;;;;;5072605;28;20074;-32
2023/05/01 10:24:38;;;;;;;4.15;1.98;;;21.10;66.20;;;;;;5073215;28;20044;-31
2023/05/01 10:27:06;;;;;;;3.03;1.95;;;19.70;48.30;;;;;;5066367;28;20049;-33
2023/05/01 10:29:35;;;;;;;5.47;2.10;;;20.80;65.10;;;;;;5062667;28;20516;-31
2023/05/01 10:32:02;;;;;;;2.97;1.80;;;;;;;;;;5061869;28;20056;-36
2023/05/01 10:34:29;;;;;;;2.90;1.85;;;20.70;65.00;;;;;;5070456;28;20068;-31
2023/05/01 10:36:57;;;;;;;2.53;1.60;;;20.80;65.50;;;;;;5071388;28;20055;-31
2023/05/01 10:39:31;;;;;;;2.67;1.80;;;20.50;46.90;;;;;;5073269;28;20052;-35
2023/05/01 10:42:07;;;;;;;3.30;2.05;;;20.80;65.10;;;;;;5072515;28;20055;-31
2023/05/01 10:44:34;;;;;;;2.85;1.80;;;20.70;65.80;;;;;;5072821;28;20048;-31
2023/05/01 10:47:24;;;;;;;4.47;2.00;;;20.60;46.90;;;;;;5066946;28;20846;-32
2023/05/01 10:50:03;;;;;;;2.90;1.80;;;20.60;46.90;;;;;;5065295;28;20063;-36
2023/05/01 10:52:29;;;;;;;3.13;1.92;;;21.60;65.70;;;;;;5072666;28;20052;-31
2023/05/01 10:55:15;;;;;;;3.10;1.80;;;20.20;64.50;;;;;;5072150;28;20048;-31
2023/05/01 10:57:43;;;;;;;;;;;20.60;47.90;;;;;;5057505;28;20423;-31
2023/05/01 11:00:10;;;;;;;3.10;2.00;;;20.70;65.40;;;;;;5058624;28;20007;-32
2023/05/01 11:02:37;;;;;;;3.67;1.92;;;20.60;55.50;;;;;;5059751;28;20052;-31
2023/05/01 11:05:05;;;;;;;3.58;2.08;;;20.90;65.10;;;;;;5063210;28;20451;-31
2023/05/01 11:07:34;;;;;;;5.25;2.00;;;19.90;49.50;;;;;;5059605;28;20053;-31
2023/05/01 11:10:01;;;;;;;3.20;1.90;;;20.20;64.70;;;;;;5063655;28;20059;-32
2023/05/01 11:12:51;;;;;;;4.05;1.85;;;20.30;51.40;;;;;;5064919;28;20482;-34
2023/05/01 11:15:31;;;;;;;2.58;1.73;;;20.60;59.40;;;;;;5058674;28;20123;-32
2023/05/01 11:17:58;;;;;;;3.10;1.70;;;21.60;66.10;;;;;;5070586;28;20060;-31
2023/05/01 11:20:50;;;;;;;3.13;1.60;;;20.90;64.90;;;;;;5072629;28;20070;-31
2023/05/01 11:23:18;;;;;;;2.50;1.50;;;20.40;64.70;;;;;;5071948;28;20478;-31
2023/05/01 11:25:45;;;;;;;1.98;1.35;;;20.80;65.60;;;;;;5072559;28;20041;-31
2023/05/01 11:28:13;;;;;;;3.25;1.65;;;20.70;46.80;;;;;;5071601;28;20097;-35
2023/05/01 11:30:40;;;;;;;2.25;1.70;;;;;;;;;;5072148;28;20127;-35
2023/05/01 11:33:07;;;;;;;3.60;1.88;;;20.50;64.50;;;;;;5072099;28;20070;-31
2023/05/01 11:35:33;;;;;;;2.10;1.60;;;20.00;49.30;;;;;;5072296;28;20044;-32
2023/05/01 11:38:00;;;;;;;2.65;1.45;;;21.30;56.00;;;;;;5071521;28;20520;-33
2023/05/01 11:40:28;;;;;;;1.95;1.50;;;20.60;64.40;;;;;;5072193;28;20082;-31
2023/05/01 11:43:00;;;;;;;3.75;1.50;;;20.80;46.80;;;;;;5072182;28;20045;-33
2023/05/01 11:45:28;;;;;;;3.33;1.60;;;20.80;65.00;;;;;;5072388;28;20040;-31
2023/05/01 11:47:56;;;;;;;1.80;1.50;;;;;;;;;;5072146;28;20055;-33
2023/05/01 11:50:22;;;;;;;2.53;1.33;;;20.70;46.80;;;;;;5071888;28;20052;-32
2023/05/01 11:52:52;;;;;;;2.22;1.58;;;21.60;65.30;;;;;;5071719;28;20127;-31
2023/05/01 11:55:19;;;;;;;2.10;1.50;;;21.00;49.30;;;;;;5071408;28;20044;-33
2023/05/01 11:57:49;;;;;;;2.30;1.50;;;20.40;65.40;;;;;;5069544;28;20408;-31
2023/05/01 12:00:16;;;;;;;3.03;1.58;;;20.70;65.60;;;;;;5071798;28;20108;-31
2023/05/01 12:02:59;;;;;;;2.10;1.52;;;20.80;64.80;;;;;;5071774;28;20140;-31
2023/05/01 12:05:27;;;;;;;1.73;1.35;;;21.00;65.00;;;;;;5072030;28;20404;-31
2023/05/01 12:08:06;;;;;;;1.65;1.42;;;;;;;;;;5052275;28;20063;-31
2023/05/01 12:10:33;;;;;;;1.85;1.42;;;;;;;;;;5052007;28;20059;-35
2023/05/01 12:13:00;;;;;;;2.10;1.58;;;21.10;65.00;;;;;;5052816;28;20052;-32
2023/05/01 12:15:27;;;;;;;1.80;1.25;;;20.40;64.90;;;;;;5051650;28;20482;-31
2023/05/01 12:17:53;;;;;;;3.90;1.88;;;20.80;50.30;;;;;;5051781;28;20099;-33
2023/05/01 12:20:38;;;;;;;1.90;1.33;;;20.70;65.40;;;;;;5060297;28;20424;-31
2023/05/01 12:23:05;;;;;;;2.28;1.50;;;19.70;64.10;;;;;;5071648;28;20416;-32
2023/05/01 12:25:32;;;;;;;3.08;1.60;;;20.70;59.60;;;;;;5064087;28;20044;-31
2023/05/01 12:28:00;;;;;;;2.13;1.40;;;;;;;;;;5062704;28;20076;-32
2023/05/01 12:30:28;;;;;;;2.88;1.40;;;21.10;65.50;;;;;;5060928;28;20056;-31
2023/05/01 12:32:55;;;;;;;2.33;1.60;;;20.70;64.90;;;;;;5071420;28;20055;-31
2023/05/01 12:35:23;;;;;;;3.50;1.80;;;20.90;63.30;;;;;;5055159;28;20052;-31
2023/05/01 12:37:51;;;;;;;2.90;1.60;;;20.70;47.10;;;;;;5068276;28;20058;-36
2023/05/01 12:40:18;;;;;;;1.95;1.30;;;;;;;;;;5071575;28;20059;-35
2023/05/01 12:42:45;;;;;;;1.95;1.55;;;20.30;65.30;;;;;;5071485;28;20071;-31
2023/05/01 12:45:14;;;;;;;2.30;1.55;;;20.30;65.30;;;;;;5071203;28;20075;-31
2023/05/01 12:47:40;;;;;;;1.92;1.52;;;20.30;52.50;;;;;;5054536;28;20110;-32
2023/05/01 12:50:08;;;;;;;2.67;1.50;;;20.00;65.60;;;;;;5051501;28;20056;-31
2023/05/01 12:52:35;;;;;;;2.65;1.60;;;21.10;66.20;;;;;;5051483;28;20049;-31
2023/05/01 12:55:04;;;;;;;2.67;1.52;;;20.60;47.20;;;;;;5051626;28;20045;-31
2023/05/01 12:57:31;;;;;;;2.30;1.55;;;;;;;;;;5057863;28;20075;-35
2023/05/01 13:00:03;;;;;;;2.25;1.50;;;20.80;65.20;;;;;;5053357;28;20136;-31
2023/05/01 13:02:30;;;;;;;3.50;1.42;;;20.90;65.30;;;;;;5051529;28;20080;-31
2023/05/01 13:05:06;;;;;;;2.33;1.60;;;20.50;65.10;;;;;;5054798;28;20056;-32
2023/05/01 13:07:32;;;;;;;2.97;1.70;;;21.10;65.90;;;;;;5054863;28;20486;-32
2023/05/01 13:09:59;;;;;;;1.88;1.50;;;20.50;53.20;;;;;;5055339;28;20052;-33